Main page
METAR-TAF:

METAR-TAF

Airports :

Kuressaare Airport

Kuressaare, Estonia

latitude: 58-13-48N, longitude: 022-30-34E, elevation: 4 m

Current weather observation

The report was made 17 minutes ago, at 05:20 UTC
Wind 5 kt from the Southeast
Temperature 15°C
Humidity 94%
Pressure 1004 hPa
Visibility 10 km or more
no clouds below 1500 m and no cumulonimbus

METAR: EEKE 240520Z 13005KT CAVOK 15/14 Q1004

Time: 08:37 (05:37 UTC)

Forecast

The report was made 37 minutes ago, at 05:00 UTC
Forecast valid from 24 at 06 UTC to 24 at 12 UTC
Wind 12 kt from the South
Visibility 10 km or more
Scattered clouds at a height of 3000 ft
Probability 30% :
Temporary
from 24 at 09 UTC to 24 at 12 UTC
Scattered clouds at a height of 3000 ft, Cumulonimbus.

TAF: EEKE 240500Z 2406/2412 17012KT 9999 SCT030 PROB30 TEMPO 2409/2412 SCT030CB

Weather observations and forecasts of more than 4000 airports (METAR and TAF reports).

The available stations are represented by yellow and red dots on the map.

Hover mouse over dot to see the name of the station.

Then click to see weather observations and forecasts.

To change the map : click on the green buttons with a black cross to zoom in, on the green button with a dash to zoom out, or on the green arrows for adjacent maps.


METAR-TAF: